sensor_id;sensor_type;location;lat;lon;timestamp;P1;durP1;ratioP1;P2;durP2;ratioP2
23406;SDS011;11876;53.438;18.942;2023-03-23T00:02:36;31.92;;;23.38;;
23406;SDS011;11876;53.438;18.942;2023-03-23T00:05:38;30.05;;;23.35;;
23406;SDS011;11876;53.438;18.942;2023-03-23T00:08:41;31.40;;;23.10;;
23406;SDS011;11876;53.438;18.942;2023-03-23T00:11:45;28.65;;;23.40;;
23406;SDS011;11876;53.438;18.942;2023-03-23T00:14:46;34.28;;;24.73;;
23406;SDS011;11876;53.438;18.942;2023-03-23T00:17:48;31.33;;;22.85;;
23406;SDS011;11876;53.438;18.942;2023-03-23T00:20:50;31.05;;;23.05;;
23406;SDS011;11876;53.438;18.942;2023-03-23T00:23:56;30.75;;;24.23;;
23406;SDS011;11876;53.438;18.942;2023-03-23T00:26:57;34.20;;;24.20;;
23406;SDS011;11876;53.438;18.942;2023-03-23T00:29:58;32.35;;;24.25;;
23406;SDS011;11876;53.438;18.942;2023-03-23T00:33:00;32.85;;;24.52;;
23406;SDS011;11876;53.438;18.942;2023-03-23T00:36:01;30.08;;;22.95;;
23406;SDS011;11876;53.438;18.942;2023-03-23T00:39:03;31.02;;;22.67;;
23406;SDS011;11876;53.438;18.942;2023-03-23T00:42:05;29.73;;;23.17;;
23406;SDS011;11876;53.438;18.942;2023-03-23T00:45:06;33.08;;;23.35;;
23406;SDS011;11876;53.438;18.942;2023-03-23T00:48:11;30.10;;;23.77;;
23406;SDS011;11876;53.438;18.942;2023-03-23T00:51:16;32.67;;;25.38;;
23406;SDS011;11876;53.438;18.942;2023-03-23T00:54:21;33.03;;;24.60;;
23406;SDS011;11876;53.438;18.942;2023-03-23T00:57:23;32.10;;;25.17;;
23406;SDS011;11876;53.438;18.942;2023-03-23T01:00:25;32.42;;;23.83;;
23406;SDS011;11876;53.438;18.942;2023-03-23T01:03:26;32.17;;;24.45;;
23406;SDS011;11876;53.438;18.942;2023-03-23T01:06:28;34.50;;;25.33;;
23406;SDS011;11876;53.438;18.942;2023-03-23T01:09:31;31.25;;;24.90;;
23406;SDS011;11876;53.438;18.942;2023-03-23T01:12:33;34.28;;;24.20;;
23406;SDS011;11876;53.438;18.942;2023-03-23T01:15:34;34.20;;;25.17;;
23406;SDS011;11876;53.438;18.942;2023-03-23T01:18:36;42.00;;;29.08;;
23406;SDS011;11876;53.438;18.942;2023-03-23T01:21:38;39.75;;;26.00;;
23406;SDS011;11876;53.438;18.942;2023-03-23T01:24:40;52.05;;;30.95;;
23406;SDS011;11876;53.438;18.942;2023-03-23T01:27:41;48.28;;;30.38;;
23406;SDS011;11876;53.438;18.942;2023-03-23T01:30:43;47.03;;;31.15;;
23406;SDS011;11876;53.438;18.942;2023-03-23T01:33:44;49.90;;;31.73;;
23406;SDS011;11876;53.438;18.942;2023-03-23T01:36:46;37.20;;;27.80;;
23406;SDS011;11876;53.438;18.942;2023-03-23T01:39:47;35.88;;;27.10;;
23406;SDS011;11876;53.438;18.942;2023-03-23T01:42:49;34.92;;;25.65;;
23406;SDS011;11876;53.438;18.942;2023-03-23T01:45:51;41.30;;;27.85;;
23406;SDS011;11876;53.438;18.942;2023-03-23T01:48:52;38.88;;;29.05;;
23406;SDS011;11876;53.438;18.942;2023-03-23T01:52:16;43.13;;;31.60;;
23406;SDS011;11876;53.438;18.942;2023-03-23T01:55:26;39.08;;;26.58;;
23406;SDS011;11876;53.438;18.942;2023-03-23T01:58:29;37.72;;;26.60;;
23406;SDS011;11876;53.438;18.942;2023-03-23T02:01:32;38.30;;;28.13;;
23406;SDS011;11876;53.438;18.942;2023-03-23T02:04:37;30.50;;;24.70;;
23406;SDS011;11876;53.438;18.942;2023-03-23T02:07:38;32.53;;;24.15;;
23406;SDS011;11876;53.438;18.942;2023-03-23T02:10:40;30.00;;;24.02;;
23406;SDS011;11876;53.438;18.942;2023-03-23T02:13:43;31.42;;;23.48;;
23406;SDS011;11876;53.438;18.942;2023-03-23T02:16:50;27.73;;;23.25;;
23406;SDS011;11876;53.438;18.942;2023-03-23T02:23:42;30.20;;;21.40;;
23406;SDS011;11876;53.438;18.942;2023-03-23T02:30:35;32.97;;;23.33;;
23406;SDS011;11876;53.438;18.942;2023-03-23T02:37:36;34.42;;;25.40;;
23406;SDS011;11876;53.438;18.942;2023-03-23T02:43:43;36.22;;;24.70;;
23406;SDS011;11876;53.438;18.942;2023-03-23T02:46:45;33.38;;;25.45;;
23406;SDS011;11876;53.438;18.942;2023-03-23T02:49:48;33.03;;;25.85;;
23406;SDS011;11876;53.438;18.942;2023-03-23T02:52:51;32.00;;;25.20;;
23406;SDS011;11876;53.438;18.942;2023-03-23T02:55:53;28.33;;;23.13;;
23406;SDS011;11876;53.438;18.942;2023-03-23T02:58:58;32.85;;;23.70;;
23406;SDS011;11876;53.438;18.942;2023-03-23T03:02:14;28.55;;;21.80;;
23406;SDS011;11876;53.438;18.942;2023-03-23T03:09:10;31.73;;;23.17;;
23406;SDS011;11876;53.438;18.942;2023-03-23T03:15:47;28.65;;;22.15;;
23406;SDS011;11876;53.438;18.942;2023-03-23T03:19:22;28.45;;;22.33;;
23406;SDS011;11876;53.438;18.942;2023-03-23T03:22:27;32.95;;;24.58;;
23406;SDS011;11876;53.438;18.942;2023-03-23T03:25:29;29.08;;;22.08;;
23406;SDS011;11876;53.438;18.942;2023-03-23T03:28:32;31.35;;;22.58;;
23406;SDS011;11876;53.438;18.942;2023-03-23T03:31:35;31.02;;;22.98;;
23406;SDS011;11876;53.438;18.942;2023-03-23T03:34:39;32.50;;;22.35;;
23406;SDS011;11876;53.438;18.942;2023-03-23T03:37:40;28.60;;;22.65;;
23406;SDS011;11876;53.438;18.942;2023-03-23T03:40:42;28.98;;;21.63;;
23406;SDS011;11876;53.438;18.942;2023-03-23T03:43:43;30.08;;;21.58;;
23406;SDS011;11876;53.438;18.942;2023-03-23T03:46:44;26.95;;;20.95;;
23406;SDS011;11876;53.438;18.942;2023-03-23T03:49:46;26.98;;;20.95;;
23406;SDS011;11876;53.438;18.942;2023-03-23T03:52:47;26.33;;;21.30;;
23406;SDS011;11876;53.438;18.942;2023-03-23T03:55:48;27.73;;;21.42;;
23406;SDS011;11876;53.438;18.942;2023-03-23T03:58:52;22.05;;;15.38;;
23406;SDS011;11876;53.438;18.942;2023-03-23T04:01:59;28.23;;;20.88;;
23406;SDS011;11876;53.438;18.942;2023-03-23T04:05:00;28.48;;;20.63;;
23406;SDS011;11876;53.438;18.942;2023-03-23T04:08:06;27.40;;;21.13;;
23406;SDS011;11876;53.438;18.942;2023-03-23T04:11:07;30.08;;;22.92;;
23406;SDS011;11876;53.438;18.942;2023-03-23T04:14:09;32.53;;;22.38;;
23406;SDS011;11876;53.438;18.942;2023-03-23T04:17:17;33.08;;;21.00;;
23406;SDS011;11876;53.438;18.942;2023-03-23T04:20:21;25.95;;;19.30;;
23406;SDS011;11876;53.438;18.942;2023-03-23T04:23:23;24.80;;;19.08;;
23406;SDS011;11876;53.438;18.942;2023-03-23T04:26:27;26.20;;;20.52;;
23406;SDS011;11876;53.438;18.942;2023-03-23T04:29:39;30.55;;;21.38;;
23406;SDS011;11876;53.438;18.942;2023-03-23T04:33:13;26.50;;;20.10;;
23406;SDS011;11876;53.438;18.942;2023-03-23T04:36:20;26.73;;;20.08;;
23406;SDS011;11876;53.438;18.942;2023-03-23T04:39:32;28.83;;;20.63;;
23406;SDS011;11876;53.438;18.942;2023-03-23T04:42:36;28.90;;;20.48;;
23406;SDS011;11876;53.438;18.942;2023-03-23T04:45:57;29.75;;;20.50;;
23406;SDS011;11876;53.438;18.942;2023-03-23T04:49:03;30.98;;;22.30;;
23406;SDS011;11876;53.438;18.942;2023-03-23T04:52:09;27.58;;;21.17;;
23406;SDS011;11876;53.438;18.942;2023-03-23T04:55:17;29.38;;;20.13;;
23406;SDS011;11876;53.438;18.942;2023-03-23T04:58:27;26.75;;;20.25;;
23406;SDS011;11876;53.438;18.942;2023-03-23T05:01:49;27.70;;;20.38;;
23406;SDS011;11876;53.438;18.942;2023-03-23T05:04:52;30.45;;;21.25;;
23406;SDS011;11876;53.438;18.942;2023-03-23T05:07:59;29.88;;;21.70;;
23406;SDS011;11876;53.438;18.942;2023-03-23T05:11:04;29.02;;;21.23;;
23406;SDS011;11876;53.438;18.942;2023-03-23T05:14:09;26.80;;;19.42;;
23406;SDS011;11876;53.438;18.942;2023-03-23T05:17:12;30.20;;;22.67;;
23406;SDS011;11876;53.438;18.942;2023-03-23T05:20:18;30.52;;;20.98;;
23406;SDS011;11876;53.438;18.942;2023-03-23T05:23:26;27.80;;;20.42;;
23406;SDS011;11876;53.438;18.942;2023-03-23T05:26:36;27.98;;;19.75;;
23406;SDS011;11876;53.438;18.942;2023-03-23T05:29:41;31.08;;;20.60;;
23406;SDS011;11876;53.438;18.942;2023-03-23T05:32:43;28.90;;;20.25;;
23406;SDS011;11876;53.438;18.942;2023-03-23T05:36:04;30.25;;;20.80;;
23406;SDS011;11876;53.438;18.942;2023-03-23T05:39:24;30.02;;;19.52;;
23406;SDS011;11876;53.438;18.942;2023-03-23T05:42:47;24.55;;;19.25;;
23406;SDS011;11876;53.438;18.942;2023-03-23T05:46:01;25.17;;;19.33;;
23406;SDS011;11876;53.438;18.942;2023-03-23T05:49:04;23.73;;;18.90;;
23406;SDS011;11876;53.438;18.942;2023-03-23T05:52:12;28.52;;;19.02;;
23406;SDS011;11876;53.438;18.942;2023-03-23T05:55:14;22.35;;;18.30;;
23406;SDS011;11876;53.438;18.942;2023-03-23T05:58:20;24.33;;;19.23;;
23406;SDS011;11876;53.438;18.942;2023-03-23T06:01:22;27.80;;;20.73;;
23406;SDS011;11876;53.438;18.942;2023-03-23T06:04:25;25.58;;;19.23;;
23406;SDS011;11876;53.438;18.942;2023-03-23T06:07:50;26.50;;;19.70;;
23406;SDS011;11876;53.438;18.942;2023-03-23T06:10:52;23.08;;;17.95;;
23406;SDS011;11876;53.438;18.942;2023-03-23T06:13:54;22.35;;;17.08;;
23406;SDS011;11876;53.438;18.942;2023-03-23T06:16:55;29.13;;;16.75;;
23406;SDS011;11876;53.438;18.942;2023-03-23T06:19:57;24.13;;;17.23;;
23406;SDS011;11876;53.438;18.942;2023-03-23T06:22:59;32.00;;;20.13;;
23406;SDS011;11876;53.438;18.942;2023-03-23T06:26:06;22.30;;;16.65;;
23406;SDS011;11876;53.438;18.942;2023-03-23T06:29:11;27.38;;;17.48;;
23406;SDS011;11876;53.438;18.942;2023-03-23T06:32:18;27.13;;;16.85;;
23406;SDS011;11876;53.438;18.942;2023-03-23T06:35:20;25.08;;;15.43;;
23406;SDS011;11876;53.438;18.942;2023-03-23T06:38:42;22.13;;;15.90;;
23406;SDS011;11876;53.438;18.942;2023-03-23T06:41:45;18.73;;;13.52;;
23406;SDS011;11876;53.438;18.942;2023-03-23T06:44:47;25.38;;;17.35;;
23406;SDS011;11876;53.438;18.942;2023-03-23T06:47:49;25.60;;;15.70;;
23406;SDS011;11876;53.438;18.942;2023-03-23T06:50:50;21.15;;;15.38;;
23406;SDS011;11876;53.438;18.942;2023-03-23T06:53:54;21.60;;;15.30;;
23406;SDS011;11876;53.438;18.942;2023-03-23T06:56:56;21.50;;;15.13;;
23406;SDS011;11876;53.438;18.942;2023-03-23T06:59:57;23.75;;;16.73;;
23406;SDS011;11876;53.438;18.942;2023-03-23T07:02:59;21.75;;;16.13;;
23406;SDS011;11876;53.438;18.942;2023-03-23T07:06:01;25.92;;;14.57;;
23406;SDS011;11876;53.438;18.942;2023-03-23T07:09:09;30.20;;;16.83;;
23406;SDS011;11876;53.438;18.942;2023-03-23T07:12:10;20.98;;;15.23;;
23406;SDS011;11876;53.438;18.942;2023-03-23T07:15:18;15.50;;;13.05;;
23406;SDS011;11876;53.438;18.942;2023-03-23T07:18:23;17.80;;;12.43;;
23406;SDS011;11876;53.438;18.942;2023-03-23T07:21:27;20.70;;;13.93;;
23406;SDS011;11876;53.438;18.942;2023-03-23T07:24:29;21.58;;;13.48;;
23406;SDS011;11876;53.438;18.942;2023-03-23T07:27:41;17.92;;;11.80;;
23406;SDS011;11876;53.438;18.942;2023-03-23T07:30:42;15.73;;;11.35;;
23406;SDS011;11876;53.438;18.942;2023-03-23T07:33:45;13.68;;;11.15;;
23406;SDS011;11876;53.438;18.942;2023-03-23T07:36:46;13.05;;;10.07;;
23406;SDS011;11876;53.438;18.942;2023-03-23T07:39:48;14.88;;;11.98;;
23406;SDS011;11876;53.438;18.942;2023-03-23T07:42:54;17.42;;;11.85;;
23406;SDS011;11876;53.438;18.942;2023-03-23T07:46:13;17.13;;;11.90;;
23406;SDS011;11876;53.438;18.942;2023-03-23T07:49:39;15.20;;;11.68;;
23406;SDS011;11876;53.438;18.942;2023-03-23T07:52:59;14.90;;;13.02;;
23406;SDS011;11876;53.438;18.942;2023-03-23T07:56:04;12.60;;;10.93;;
23406;SDS011;11876;53.438;18.942;2023-03-23T07:59:21;15.18;;;11.00;;
23406;SDS011;11876;53.438;18.942;2023-03-23T08:02:24;13.13;;;9.88;;
23406;SDS011;11876;53.438;18.942;2023-03-23T08:06:05;13.55;;;10.40;;
23406;SDS011;11876;53.438;18.942;2023-03-23T08:09:27;13.43;;;9.00;;
23406;SDS011;11876;53.438;18.942;2023-03-23T08:12:42;13.05;;;9.57;;
23406;SDS011;11876;53.438;18.942;2023-03-23T08:15:59;12.57;;;9.43;;
23406;SDS011;11876;53.438;18.942;2023-03-23T08:19:22;14.20;;;10.13;;
23406;SDS011;11876;53.438;18.942;2023-03-23T08:22:58;13.93;;;9.55;;
23406;SDS011;11876;53.438;18.942;2023-03-23T08:26:18;14.15;;;9.23;;
23406;SDS011;11876;53.438;18.942;2023-03-23T08:29:21;10.30;;;8.43;;
23406;SDS011;11876;53.438;18.942;2023-03-23T08:32:25;9.82;;;6.10;;
23406;SDS011;11876;53.438;18.942;2023-03-23T08:35:40;8.68;;;5.65;;
23406;SDS011;11876;53.438;18.942;2023-03-23T08:39:01;9.38;;;7.05;;
23406;SDS011;11876;53.438;18.942;2023-03-23T08:42:35;12.68;;;6.97;;
23406;SDS011;11876;53.438;18.942;2023-03-23T08:49:43;9.57;;;7.10;;
23406;SDS011;11876;53.438;18.942;2023-03-23T08:53:04;11.30;;;6.80;;
23406;SDS011;11876;53.438;18.942;2023-03-23T08:56:21;7.35;;;6.40;;
23406;SDS011;11876;53.438;18.942;2023-03-23T08:59:41;9.98;;;6.38;;
23406;SDS011;11876;53.438;18.942;2023-03-23T09:02:53;11.18;;;7.15;;
23406;SDS011;11876;53.438;18.942;2023-03-23T09:05:59;10.30;;;6.35;;
23406;SDS011;11876;53.438;18.942;2023-03-23T09:09:17;8.48;;;6.32;;
23406;SDS011;11876;53.438;18.942;2023-03-23T09:12:18;10.52;;;7.38;;
23406;SDS011;11876;53.438;18.942;2023-03-23T09:15:19;11.55;;;6.40;;
23406;SDS011;11876;53.438;18.942;2023-03-23T09:18:21;6.68;;;5.68;;
23406;SDS011;11876;53.438;18.942;2023-03-23T09:21:23;8.52;;;6.15;;
23406;SDS011;11876;53.438;18.942;2023-03-23T09:24:26;7.68;;;5.63;;
23406;SDS011;11876;53.438;18.942;2023-03-23T09:27:27;6.68;;;5.35;;
23406;SDS011;11876;53.438;18.942;2023-03-23T09:30:30;5.68;;;3.85;;
23406;SDS011;11876;53.438;18.942;2023-03-23T09:33:32;5.30;;;3.28;;
23406;SDS011;11876;53.438;18.942;2023-03-23T09:36:34;7.18;;;4.25;;
23406;SDS011;11876;53.438;18.942;2023-03-23T09:39:36;6.43;;;3.70;;
23406;SDS011;11876;53.438;18.942;2023-03-23T09:42:44;5.70;;;3.58;;
23406;SDS011;11876;53.438;18.942;2023-03-23T09:52:29;9.30;;;4.20;;
23406;SDS011;11876;53.438;18.942;2023-03-23T09:55:38;3.65;;;2.63;;
23406;SDS011;11876;53.438;18.942;2023-03-23T09:58:43;4.20;;;3.78;;
23406;SDS011;11876;53.438;18.942;2023-03-23T10:01:48;6.22;;;4.05;;
23406;SDS011;11876;53.438;18.942;2023-03-23T10:04:54;4.43;;;3.13;;
23406;SDS011;11876;53.438;18.942;2023-03-23T10:07:58;8.77;;;4.13;;
23406;SDS011;11876;53.438;18.942;2023-03-23T10:17:28;4.45;;;3.42;;
23406;SDS011;11876;53.438;18.942;2023-03-23T10:33:25;5.88;;;3.17;;
23406;SDS011;11876;53.438;18.942;2023-03-23T10:36:34;3.92;;;2.60;;
23406;SDS011;11876;53.438;18.942;2023-03-23T10:39:40;3.28;;;2.70;;
23406;SDS011;11876;53.438;18.942;2023-03-23T10:42:48;4.50;;;2.67;;
23406;SDS011;11876;53.438;18.942;2023-03-23T10:45:52;7.07;;;2.70;;
23406;SDS011;11876;53.438;18.942;2023-03-23T10:48:56;8.07;;;4.25;;
23406;SDS011;11876;53.438;18.942;2023-03-23T10:52:45;6.30;;;4.37;;
23406;SDS011;11876;53.438;18.942;2023-03-23T10:55:37;8.85;;;5.30;;
23406;SDS011;11876;53.438;18.942;2023-03-23T10:58:39;9.40;;;5.82;;
23406;SDS011;11876;53.438;18.942;2023-03-23T11:01:42;5.88;;;3.15;;
23406;SDS011;11876;53.438;18.942;2023-03-23T11:08:10;4.93;;;2.63;;
23406;SDS011;11876;53.438;18.942;2023-03-23T11:11:17;4.80;;;3.40;;
23406;SDS011;11876;53.438;18.942;2023-03-23T11:14:25;7.88;;;4.00;;
23406;SDS011;11876;53.438;18.942;2023-03-23T11:17:34;4.18;;;3.10;;
23406;SDS011;11876;53.438;18.942;2023-03-23T11:20:37;3.75;;;3.33;;
23406;SDS011;11876;53.438;18.942;2023-03-23T11:23:40;6.28;;;3.60;;
23406;SDS011;11876;53.438;18.942;2023-03-23T11:26:43;11.90;;;3.20;;
23406;SDS011;11876;53.438;18.942;2023-03-23T11:29:50;3.72;;;3.38;;
23406;SDS011;11876;53.438;18.942;2023-03-23T11:32:54;5.85;;;3.92;;
23406;SDS011;11876;53.438;18.942;2023-03-23T11:35:56;6.38;;;3.85;;
23406;SDS011;11876;53.438;18.942;2023-03-23T11:38:58;6.15;;;4.07;;
23406;SDS011;11876;53.438;18.942;2023-03-23T11:42:00;4.97;;;3.25;;
23406;SDS011;11876;53.438;18.942;2023-03-23T11:51:50;4.40;;;2.50;;
23406;SDS011;11876;53.438;18.942;2023-03-23T11:55:19;6.07;;;4.03;;
23406;SDS011;11876;53.438;18.942;2023-03-23T11:58:18;3.88;;;3.47;;
23406;SDS011;11876;53.438;18.942;2023-03-23T12:04:56;5.27;;;4.17;;
23406;SDS011;11876;53.438;18.942;2023-03-23T12:11:20;5.38;;;4.05;;
23406;SDS011;11876;53.438;18.942;2023-03-23T12:41:26;5.57;;;4.13;;
23406;SDS011;11876;53.438;18.942;2023-03-23T12:44:34;5.22;;;4.22;;
23406;SDS011;11876;53.438;18.942;2023-03-23T12:47:47;6.45;;;5.05;;
23406;SDS011;11876;53.438;18.942;2023-03-23T12:51:44;9.00;;;4.40;;
23406;SDS011;11876;53.438;18.942;2023-03-23T12:54:48;5.43;;;4.32;;
23406;SDS011;11876;53.438;18.942;2023-03-23T12:58:11;8.35;;;4.47;;
23406;SDS011;11876;53.438;18.942;2023-03-23T13:01:19;5.30;;;4.22;;
23406;SDS011;11876;53.438;18.942;2023-03-23T13:04:25;6.70;;;4.43;;
23406;SDS011;11876;53.438;18.942;2023-03-23T13:07:46;6.72;;;4.45;;
23406;SDS011;11876;53.438;18.942;2023-03-23T13:10:50;4.35;;;3.80;;
23406;SDS011;11876;53.438;18.942;2023-03-23T13:13:56;5.72;;;4.70;;
23406;SDS011;11876;53.438;18.942;2023-03-23T13:23:35;6.18;;;4.78;;
23406;SDS011;11876;53.438;18.942;2023-03-23T13:26:41;6.05;;;4.72;;
23406;SDS011;11876;53.438;18.942;2023-03-23T13:29:44;7.95;;;4.30;;
23406;SDS011;11876;53.438;18.942;2023-03-23T13:32:49;7.45;;;5.28;;
23406;SDS011;11876;53.438;18.942;2023-03-23T13:35:50;6.88;;;4.93;;
23406;SDS011;11876;53.438;18.942;2023-03-23T13:38:52;6.18;;;4.57;;
23406;SDS011;11876;53.438;18.942;2023-03-23T13:48:22;5.60;;;4.60;;
23406;SDS011;11876;53.438;18.942;2023-03-23T13:54:40;7.15;;;4.70;;
23406;SDS011;11876;53.438;18.942;2023-03-23T13:57:52;5.47;;;4.70;;
23406;SDS011;11876;53.438;18.942;2023-03-23T14:04:10;4.95;;;4.05;;
23406;SDS011;11876;53.438;18.942;2023-03-23T14:07:16;4.80;;;3.75;;
23406;SDS011;11876;53.438;18.942;2023-03-23T14:10:19;7.65;;;4.35;;
23406;SDS011;11876;53.438;18.942;2023-03-23T14:13:41;4.18;;;3.38;;
23406;SDS011;11876;53.438;18.942;2023-03-23T14:17:06;5.93;;;3.67;;
23406;SDS011;11876;53.438;18.942;2023-03-23T14:26:25;7.25;;;5.85;;
23406;SDS011;11876;53.438;18.942;2023-03-23T14:29:27;8.52;;;5.55;;
23406;SDS011;11876;53.438;18.942;2023-03-23T14:32:28;10.50;;;6.40;;
23406;SDS011;11876;53.438;18.942;2023-03-23T14:35:33;11.45;;;7.95;;
23406;SDS011;11876;53.438;18.942;2023-03-23T14:38:36;11.20;;;6.85;;
23406;SDS011;11876;53.438;18.942;2023-03-23T14:41:39;10.90;;;7.22;;
23406;SDS011;11876;53.438;18.942;2023-03-23T14:44:48;12.18;;;7.95;;
23406;SDS011;11876;53.438;18.942;2023-03-23T14:47:51;11.93;;;7.45;;
23406;SDS011;11876;53.438;18.942;2023-03-23T14:51:01;13.83;;;6.20;;
23406;SDS011;11876;53.438;18.942;2023-03-23T14:54:08;9.43;;;5.80;;
23406;SDS011;11876;53.438;18.942;2023-03-23T14:57:28;8.13;;;6.03;;
23406;SDS011;11876;53.438;18.942;2023-03-23T15:00:31;7.53;;;5.43;;
23406;SDS011;11876;53.438;18.942;2023-03-23T15:03:35;7.85;;;5.53;;
23406;SDS011;11876;53.438;18.942;2023-03-23T15:06:39;7.93;;;4.90;;
23406;SDS011;11876;53.438;18.942;2023-03-23T15:09:43;10.60;;;6.00;;
23406;SDS011;11876;53.438;18.942;2023-03-23T15:12:46;9.93;;;5.75;;
23406;SDS011;11876;53.438;18.942;2023-03-23T15:15:49;10.80;;;6.90;;
23406;SDS011;11876;53.438;18.942;2023-03-23T15:18:53;8.68;;;5.38;;
23406;SDS011;11876;53.438;18.942;2023-03-23T15:28:28;10.13;;;6.50;;
23406;SDS011;11876;53.438;18.942;2023-03-23T15:31:32;8.05;;;5.13;;
23406;SDS011;11876;53.438;18.942;2023-03-23T15:34:34;8.38;;;5.18;;
23406;SDS011;11876;53.438;18.942;2023-03-23T15:37:47;6.68;;;4.85;;
23406;SDS011;11876;53.438;18.942;2023-03-23T15:40:51;7.70;;;5.25;;
23406;SDS011;11876;53.438;18.942;2023-03-23T15:43:56;10.85;;;7.22;;
23406;SDS011;11876;53.438;18.942;2023-03-23T15:50:16;10.82;;;6.35;;
23406;SDS011;11876;53.438;18.942;2023-03-23T15:53:28;7.85;;;4.75;;
23406;SDS011;11876;53.438;18.942;2023-03-23T15:56:31;8.48;;;5.78;;
23406;SDS011;11876;53.438;18.942;2023-03-23T15:59:32;9.60;;;6.35;;
23406;SDS011;11876;53.438;18.942;2023-03-23T16:02:35;9.57;;;6.68;;
23406;SDS011;11876;53.438;18.942;2023-03-23T16:05:37;7.93;;;4.97;;
23406;SDS011;11876;53.438;18.942;2023-03-23T16:08:40;10.05;;;6.18;;
23406;SDS011;11876;53.438;18.942;2023-03-23T16:11:54;12.18;;;7.20;;
23406;SDS011;11876;53.438;18.942;2023-03-23T16:14:57;10.15;;;6.50;;
23406;SDS011;11876;53.438;18.942;2023-03-23T16:17:59;9.00;;;5.78;;
23406;SDS011;11876;53.438;18.942;2023-03-23T16:21:02;10.15;;;6.13;;
23406;SDS011;11876;53.438;18.942;2023-03-23T16:24:05;11.20;;;6.65;;
23406;SDS011;11876;53.438;18.942;2023-03-23T16:27:08;10.67;;;6.77;;
23406;SDS011;11876;53.438;18.942;2023-03-23T16:30:16;10.43;;;6.72;;
23406;SDS011;11876;53.438;18.942;2023-03-23T16:33:20;8.40;;;6.40;;
23406;SDS011;11876;53.438;18.942;2023-03-23T16:36:23;6.72;;;5.90;;
23406;SDS011;11876;53.438;18.942;2023-03-23T16:39:25;9.77;;;6.03;;
23406;SDS011;11876;53.438;18.942;2023-03-23T16:42:28;8.25;;;5.82;;
23406;SDS011;11876;53.438;18.942;2023-03-23T16:45:31;9.77;;;6.25;;
23406;SDS011;11876;53.438;18.942;2023-03-23T16:48:33;10.85;;;7.50;;
23406;SDS011;11876;53.438;18.942;2023-03-23T16:51:38;9.07;;;7.07;;
23406;SDS011;11876;53.438;18.942;2023-03-23T16:54:43;9.35;;;7.00;;
23406;SDS011;11876;53.438;18.942;2023-03-23T16:57:46;13.98;;;10.65;;
23406;SDS011;11876;53.438;18.942;2023-03-23T17:00:49;9.13;;;6.18;;
23406;SDS011;11876;53.438;18.942;2023-03-23T17:03:52;7.57;;;4.53;;
23406;SDS011;11876;53.438;18.942;2023-03-23T17:06:56;11.52;;;8.45;;
23406;SDS011;11876;53.438;18.942;2023-03-23T17:09:59;18.65;;;9.88;;
23406;SDS011;11876;53.438;18.942;2023-03-23T17:13:01;15.50;;;9.75;;
23406;SDS011;11876;53.438;18.942;2023-03-23T17:16:04;11.18;;;6.47;;
23406;SDS011;11876;53.438;18.942;2023-03-23T17:19:07;11.07;;;7.07;;
23406;SDS011;11876;53.438;18.942;2023-03-23T17:22:09;12.85;;;8.32;;
23406;SDS011;11876;53.438;18.942;2023-03-23T17:25:12;14.45;;;10.38;;
23406;SDS011;11876;53.438;18.942;2023-03-23T17:28:15;16.45;;;11.60;;
23406;SDS011;11876;53.438;18.942;2023-03-23T17:31:20;25.08;;;16.55;;
23406;SDS011;11876;53.438;18.942;2023-03-23T17:34:24;19.30;;;11.48;;
23406;SDS011;11876;53.438;18.942;2023-03-23T17:37:26;8.70;;;5.35;;
23406;SDS011;11876;53.438;18.942;2023-03-23T17:40:29;7.13;;;5.47;;
23406;SDS011;11876;53.438;18.942;2023-03-23T17:43:31;5.70;;;4.45;;
23406;SDS011;11876;53.438;18.942;2023-03-23T17:46:34;6.25;;;4.50;;
23406;SDS011;11876;53.438;18.942;2023-03-23T17:49:36;6.63;;;4.65;;
23406;SDS011;11876;53.438;18.942;2023-03-23T17:52:39;24.63;;;12.77;;
23406;SDS011;11876;53.438;18.942;2023-03-23T17:58:46;9.63;;;5.85;;
23406;SDS011;11876;53.438;18.942;2023-03-23T18:01:49;6.40;;;5.63;;
23406;SDS011;11876;53.438;18.942;2023-03-23T18:04:55;5.60;;;4.63;;
23406;SDS011;11876;53.438;18.942;2023-03-23T18:07:58;6.82;;;5.97;;
23406;SDS011;11876;53.438;18.942;2023-03-23T18:11:01;7.78;;;5.65;;
23406;SDS011;11876;53.438;18.942;2023-03-23T18:14:04;8.02;;;6.60;;
23406;SDS011;11876;53.438;18.942;2023-03-23T18:17:07;9.77;;;7.25;;
23406;SDS011;11876;53.438;18.942;2023-03-23T18:20:09;7.47;;;5.90;;
23406;SDS011;11876;53.438;18.942;2023-03-23T18:23:12;15.52;;;9.52;;
23406;SDS011;11876;53.438;18.942;2023-03-23T18:26:15;13.77;;;8.32;;
23406;SDS011;11876;53.438;18.942;2023-03-23T18:29:17;18.50;;;11.85;;
23406;SDS011;11876;53.438;18.942;2023-03-23T18:32:20;15.77;;;7.95;;
23406;SDS011;11876;53.438;18.942;2023-03-23T18:35:22;10.00;;;7.43;;
23406;SDS011;11876;53.438;18.942;2023-03-23T18:38:24;8.07;;;6.85;;
23406;SDS011;11876;53.438;18.942;2023-03-23T18:41:27;12.85;;;8.25;;
23406;SDS011;11876;53.438;18.942;2023-03-23T18:44:29;19.70;;;13.38;;
23406;SDS011;11876;53.438;18.942;2023-03-23T18:47:32;29.27;;;19.90;;
23406;SDS011;11876;53.438;18.942;2023-03-23T18:50:35;29.23;;;19.42;;
23406;SDS011;11876;53.438;18.942;2023-03-23T18:53:37;25.85;;;15.32;;
23406;SDS011;11876;53.438;18.942;2023-03-23T18:56:40;9.85;;;8.30;;
23406;SDS011;11876;53.438;18.942;2023-03-23T18:59:42;11.52;;;8.25;;
23406;SDS011;11876;53.438;18.942;2023-03-23T19:02:45;11.18;;;7.30;;
23406;SDS011;11876;53.438;18.942;2023-03-23T19:05:52;7.22;;;5.90;;
23406;SDS011;11876;53.438;18.942;2023-03-23T19:08:59;8.07;;;6.40;;
23406;SDS011;11876;53.438;18.942;2023-03-23T19:12:02;7.57;;;6.30;;
23406;SDS011;11876;53.438;18.942;2023-03-23T19:15:05;7.88;;;6.18;;
23406;SDS011;11876;53.438;18.942;2023-03-23T19:18:08;12.10;;;7.43;;
23406;SDS011;11876;53.438;18.942;2023-03-23T19:21:10;9.57;;;7.97;;
23406;SDS011;11876;53.438;18.942;2023-03-23T19:24:18;8.48;;;7.07;;
23406;SDS011;11876;53.438;18.942;2023-03-23T19:27:20;9.27;;;6.95;;
23406;SDS011;11876;53.438;18.942;2023-03-23T19:30:25;9.57;;;6.88;;
23406;SDS011;11876;53.438;18.942;2023-03-23T19:33:28;10.85;;;8.38;;
23406;SDS011;11876;53.438;18.942;2023-03-23T19:36:31;11.15;;;9.27;;
23406;SDS011;11876;53.438;18.942;2023-03-23T19:39:34;6.10;;;4.82;;
23406;SDS011;11876;53.438;18.942;2023-03-23T19:42:37;6.80;;;3.03;;
23406;SDS011;11876;53.438;18.942;2023-03-23T19:45:40;4.57;;;1.40;;
23406;SDS011;11876;53.438;18.942;2023-03-23T19:48:43;4.60;;;1.80;;
23406;SDS011;11876;53.438;18.942;2023-03-23T19:51:47;4.88;;;1.02;;
23406;SDS011;11876;53.438;18.942;2023-03-23T19:54:49;3.03;;;1.48;;
23406;SDS011;11876;53.438;18.942;2023-03-23T19:57:51;2.30;;;1.27;;
23406;SDS011;11876;53.438;18.942;2023-03-23T20:00:54;2.85;;;1.70;;
23406;SDS011;11876;53.438;18.942;2023-03-23T20:03:57;2.22;;;1.90;;
23406;SDS011;11876;53.438;18.942;2023-03-23T20:07:02;2.75;;;1.60;;
23406;SDS011;11876;53.438;18.942;2023-03-23T20:10:08;3.33;;;2.05;;
23406;SDS011;11876;53.438;18.942;2023-03-23T20:13:10;4.20;;;2.03;;
23406;SDS011;11876;53.438;18.942;2023-03-23T20:16:13;2.92;;;1.88;;
23406;SDS011;11876;53.438;18.942;2023-03-23T20:19:17;2.33;;;2.00;;
23406;SDS011;11876;53.438;18.942;2023-03-23T20:22:20;2.70;;;2.38;;